sensor_id;sensor_type;location;lat;lon;timestamp;P1;durP1;ratioP1;P2;durP2;ratioP2
23362;SDS011;11853;48.080;11.960;2022-12-13T00:01:54;26.77;;;20.05;;
23362;SDS011;11853;48.080;11.960;2022-12-13T00:04:21;26.50;;;19.45;;
23362;SDS011;11853;48.080;11.960;2022-12-13T00:06:48;27.98;;;19.40;;
23362;SDS011;11853;48.080;11.960;2022-12-13T00:09:15;23.95;;;17.98;;
23362;SDS011;11853;48.080;11.960;2022-12-13T00:11:42;22.52;;;16.88;;
23362;SDS011;11853;48.080;11.960;2022-12-13T00:14:08;20.95;;;15.63;;
23362;SDS011;11853;48.080;11.960;2022-12-13T00:16:35;15.23;;;13.63;;
23362;SDS011;11853;48.080;11.960;2022-12-13T00:19:01;18.20;;;14.43;;
23362;SDS011;11853;48.080;11.960;2022-12-13T00:21:28;16.13;;;13.50;;
23362;SDS011;11853;48.080;11.960;2022-12-13T00:23:56;16.15;;;13.45;;
23362;SDS011;11853;48.080;11.960;2022-12-13T00:26:24;16.40;;;12.82;;
23362;SDS011;11853;48.080;11.960;2022-12-13T00:28:51;16.67;;;13.00;;
23362;SDS011;11853;48.080;11.960;2022-12-13T00:31:18;14.90;;;13.13;;
23362;SDS011;11853;48.080;11.960;2022-12-13T00:33:45;16.70;;;13.27;;
23362;SDS011;11853;48.080;11.960;2022-12-13T00:36:11;15.82;;;12.88;;
23362;SDS011;11853;48.080;11.960;2022-12-13T00:38:37;16.35;;;12.80;;
23362;SDS011;11853;48.080;11.960;2022-12-13T00:41:16;16.20;;;13.15;;
23362;SDS011;11853;48.080;11.960;2022-12-13T00:43:44;14.88;;;12.50;;
23362;SDS011;11853;48.080;11.960;2022-12-13T00:46:13;16.25;;;13.45;;
23362;SDS011;11853;48.080;11.960;2022-12-13T00:48:40;17.67;;;14.60;;
23362;SDS011;11853;48.080;11.960;2022-12-13T00:51:07;19.88;;;14.15;;
23362;SDS011;11853;48.080;11.960;2022-12-13T00:53:34;17.02;;;13.80;;
23362;SDS011;11853;48.080;11.960;2022-12-13T00:56:00;17.20;;;14.07;;
23362;SDS011;11853;48.080;11.960;2022-12-13T00:58:26;17.05;;;13.90;;
23362;SDS011;11853;48.080;11.960;2022-12-13T01:00:52;19.02;;;13.25;;
23362;SDS011;11853;48.080;11.960;2022-12-13T01:03:17;18.67;;;14.40;;
23362;SDS011;11853;48.080;11.960;2022-12-13T01:05:49;16.08;;;13.13;;
23362;SDS011;11853;48.080;11.960;2022-12-13T01:08:15;20.13;;;14.23;;
23362;SDS011;11853;48.080;11.960;2022-12-13T01:10:44;15.13;;;12.32;;
23362;SDS011;11853;48.080;11.960;2022-12-13T01:13:11;16.48;;;13.05;;
23362;SDS011;11853;48.080;11.960;2022-12-13T01:15:45;18.00;;;12.88;;
23362;SDS011;11853;48.080;11.960;2022-12-13T01:18:12;16.55;;;12.90;;
23362;SDS011;11853;48.080;11.960;2022-12-13T01:20:42;16.45;;;12.85;;
23362;SDS011;11853;48.080;11.960;2022-12-13T01:23:21;15.15;;;12.82;;
23362;SDS011;11853;48.080;11.960;2022-12-13T01:25:46;16.70;;;13.20;;
23362;SDS011;11853;48.080;11.960;2022-12-13T01:28:12;15.93;;;13.35;;
23362;SDS011;11853;48.080;11.960;2022-12-13T01:30:37;16.83;;;12.75;;
23362;SDS011;11853;48.080;11.960;2022-12-13T01:33:03;17.17;;;13.30;;
23362;SDS011;11853;48.080;11.960;2022-12-13T01:35:28;16.48;;;13.45;;
23362;SDS011;11853;48.080;11.960;2022-12-13T01:37:54;18.80;;;13.93;;
23362;SDS011;11853;48.080;11.960;2022-12-13T01:40:19;16.70;;;13.82;;
23362;SDS011;11853;48.080;11.960;2022-12-13T01:42:45;17.35;;;14.07;;
23362;SDS011;11853;48.080;11.960;2022-12-13T01:47:47;17.08;;;13.30;;
23362;SDS011;11853;48.080;11.960;2022-12-13T01:50:17;17.17;;;14.27;;
23362;SDS011;11853;48.080;11.960;2022-12-13T01:52:46;16.88;;;13.88;;
23362;SDS011;11853;48.080;11.960;2022-12-13T01:55:13;17.23;;;13.95;;
23362;SDS011;11853;48.080;11.960;2022-12-13T01:57:42;18.13;;;13.63;;
23362;SDS011;11853;48.080;11.960;2022-12-13T02:00:11;20.75;;;14.20;;
23362;SDS011;11853;48.080;11.960;2022-12-13T02:02:37;17.20;;;14.50;;
23362;SDS011;11853;48.080;11.960;2022-12-13T02:05:10;18.83;;;14.30;;
23362;SDS011;11853;48.080;11.960;2022-12-13T02:07:42;16.50;;;13.68;;
23362;SDS011;11853;48.080;11.960;2022-12-13T02:10:09;18.50;;;14.38;;
23362;SDS011;11853;48.080;11.960;2022-12-13T02:12:36;17.67;;;14.13;;
23362;SDS011;11853;48.080;11.960;2022-12-13T02:15:08;17.48;;;13.95;;
23362;SDS011;11853;48.080;11.960;2022-12-13T02:20:46;20.10;;;14.15;;
23362;SDS011;11853;48.080;11.960;2022-12-13T02:32:40;15.52;;;13.45;;
23362;SDS011;11853;48.080;11.960;2022-12-13T02:35:09;15.85;;;13.15;;
23362;SDS011;11853;48.080;11.960;2022-12-13T02:43:17;16.77;;;14.20;;
23362;SDS011;11853;48.080;11.960;2022-12-13T02:48:20;17.45;;;13.07;;
23362;SDS011;11853;48.080;11.960;2022-12-13T02:50:50;16.50;;;13.15;;
23362;SDS011;11853;48.080;11.960;2022-12-13T02:53:18;16.15;;;13.10;;
23362;SDS011;11853;48.080;11.960;2022-12-13T02:55:48;17.02;;;13.52;;
23362;SDS011;11853;48.080;11.960;2022-12-13T02:58:21;17.35;;;13.40;;
23362;SDS011;11853;48.080;11.960;2022-12-13T03:14:35;16.33;;;12.10;;
23362;SDS011;11853;48.080;11.960;2022-12-13T03:17:06;18.13;;;11.80;;
23362;SDS011;11853;48.080;11.960;2022-12-13T03:19:34;13.05;;;10.52;;
23362;SDS011;11853;48.080;11.960;2022-12-13T03:22:00;13.68;;;11.68;;
23362;SDS011;11853;48.080;11.960;2022-12-13T03:24:30;13.63;;;10.93;;
23362;SDS011;11853;48.080;11.960;2022-12-13T03:26:56;14.82;;;11.23;;
23362;SDS011;11853;48.080;11.960;2022-12-13T03:29:21;13.43;;;11.20;;
23362;SDS011;11853;48.080;11.960;2022-12-13T03:31:47;14.68;;;11.82;;
23362;SDS011;11853;48.080;11.960;2022-12-13T03:34:12;15.00;;;11.27;;
23362;SDS011;11853;48.080;11.960;2022-12-13T03:36:38;16.55;;;11.75;;
23362;SDS011;11853;48.080;11.960;2022-12-13T03:39:04;14.05;;;11.38;;
23362;SDS011;11853;48.080;11.960;2022-12-13T03:41:29;17.40;;;14.32;;
23362;SDS011;11853;48.080;11.960;2022-12-13T03:43:58;16.02;;;12.13;;
23362;SDS011;11853;48.080;11.960;2022-12-13T03:46:27;16.30;;;11.98;;
23362;SDS011;11853;48.080;11.960;2022-12-13T03:48:53;12.85;;;11.05;;
23362;SDS011;11853;48.080;11.960;2022-12-13T03:51:18;15.90;;;11.50;;
23362;SDS011;11853;48.080;11.960;2022-12-13T03:53:44;17.83;;;11.85;;
23362;SDS011;11853;48.080;11.960;2022-12-13T03:56:09;13.77;;;11.55;;
23362;SDS011;11853;48.080;11.960;2022-12-13T03:58:35;13.98;;;11.55;;
23362;SDS011;11853;48.080;11.960;2022-12-13T04:01:01;12.55;;;11.25;;
23362;SDS011;11853;48.080;11.960;2022-12-13T04:03:28;14.57;;;11.13;;
23362;SDS011;11853;48.080;11.960;2022-12-13T04:05:54;12.98;;;10.73;;
23362;SDS011;11853;48.080;11.960;2022-12-13T04:08:19;14.85;;;11.25;;
23362;SDS011;11853;48.080;11.960;2022-12-13T04:10:45;14.52;;;11.45;;
23362;SDS011;11853;48.080;11.960;2022-12-13T04:13:10;13.40;;;10.73;;
23362;SDS011;11853;48.080;11.960;2022-12-13T04:15:54;14.00;;;11.32;;
23362;SDS011;11853;48.080;11.960;2022-12-13T04:18:20;11.93;;;10.52;;
23362;SDS011;11853;48.080;11.960;2022-12-13T04:20:45;12.55;;;10.23;;
23362;SDS011;11853;48.080;11.960;2022-12-13T04:23:11;13.52;;;10.52;;
23362;SDS011;11853;48.080;11.960;2022-12-13T04:25:40;13.68;;;10.35;;
23362;SDS011;11853;48.080;11.960;2022-12-13T04:28:06;15.15;;;10.85;;
23362;SDS011;11853;48.080;11.960;2022-12-13T04:30:32;15.00;;;12.77;;
23362;SDS011;11853;48.080;11.960;2022-12-13T04:32:59;15.20;;;10.40;;
23362;SDS011;11853;48.080;11.960;2022-12-13T04:38:46;14.68;;;10.63;;
23362;SDS011;11853;48.080;11.960;2022-12-13T04:41:13;12.38;;;10.23;;
23362;SDS011;11853;48.080;11.960;2022-12-13T04:43:41;13.35;;;10.32;;
23362;SDS011;11853;48.080;11.960;2022-12-13T04:46:08;13.25;;;10.85;;
23362;SDS011;11853;48.080;11.960;2022-12-13T04:48:34;11.60;;;10.07;;
23362;SDS011;11853;48.080;11.960;2022-12-13T04:51:00;13.95;;;10.52;;
23362;SDS011;11853;48.080;11.960;2022-12-13T04:53:27;12.85;;;10.55;;
23362;SDS011;11853;48.080;11.960;2022-12-13T04:55:54;12.98;;;10.25;;
23362;SDS011;11853;48.080;11.960;2022-12-13T04:58:19;12.85;;;10.65;;
23362;SDS011;11853;48.080;11.960;2022-12-13T05:00:45;13.30;;;10.15;;
23362;SDS011;11853;48.080;11.960;2022-12-13T05:03:11;12.10;;;10.35;;
23362;SDS011;11853;48.080;11.960;2022-12-13T05:05:38;14.27;;;11.13;;
23362;SDS011;11853;48.080;11.960;2022-12-13T05:08:05;12.65;;;10.65;;
23362;SDS011;11853;48.080;11.960;2022-12-13T05:10:32;12.77;;;10.23;;
23362;SDS011;11853;48.080;11.960;2022-12-13T05:13:01;12.15;;;10.70;;
23362;SDS011;11853;48.080;11.960;2022-12-13T05:15:28;13.63;;;10.50;;
23362;SDS011;11853;48.080;11.960;2022-12-13T05:17:55;14.25;;;11.13;;
23362;SDS011;11853;48.080;11.960;2022-12-13T05:20:24;15.23;;;10.70;;
23362;SDS011;11853;48.080;11.960;2022-12-13T05:22:50;15.15;;;11.35;;
23362;SDS011;11853;48.080;11.960;2022-12-13T05:25:16;17.10;;;12.85;;
23362;SDS011;11853;48.080;11.960;2022-12-13T05:27:42;15.30;;;12.52;;
23362;SDS011;11853;48.080;11.960;2022-12-13T05:30:08;14.77;;;12.27;;
23362;SDS011;11853;48.080;11.960;2022-12-13T05:32:34;14.98;;;12.52;;
23362;SDS011;11853;48.080;11.960;2022-12-13T05:35:02;14.68;;;11.82;;
23362;SDS011;11853;48.080;11.960;2022-12-13T05:37:29;14.15;;;11.45;;
23362;SDS011;11853;48.080;11.960;2022-12-13T05:39:54;13.32;;;11.25;;
23362;SDS011;11853;48.080;11.960;2022-12-13T05:42:20;15.32;;;11.68;;
23362;SDS011;11853;48.080;11.960;2022-12-13T05:44:46;14.73;;;11.43;;
23362;SDS011;11853;48.080;11.960;2022-12-13T05:47:12;15.85;;;11.70;;
23362;SDS011;11853;48.080;11.960;2022-12-13T05:49:37;15.95;;;11.82;;
23362;SDS011;11853;48.080;11.960;2022-12-13T05:52:04;14.27;;;11.38;;
23362;SDS011;11853;48.080;11.960;2022-12-13T05:54:30;12.98;;;10.85;;
23362;SDS011;11853;48.080;11.960;2022-12-13T05:56:55;14.88;;;11.77;;
23362;SDS011;11853;48.080;11.960;2022-12-13T05:59:21;14.85;;;11.98;;
23362;SDS011;11853;48.080;11.960;2022-12-13T06:01:47;14.98;;;11.45;;
23362;SDS011;11853;48.080;11.960;2022-12-13T06:04:13;13.57;;;11.48;;
23362;SDS011;11853;48.080;11.960;2022-12-13T06:06:39;13.45;;;11.35;;
23362;SDS011;11853;48.080;11.960;2022-12-13T06:09:04;14.43;;;11.32;;
23362;SDS011;11853;48.080;11.960;2022-12-13T06:11:31;14.82;;;11.35;;
23362;SDS011;11853;48.080;11.960;2022-12-13T06:13:57;12.82;;;11.27;;
23362;SDS011;11853;48.080;11.960;2022-12-13T06:16:23;13.75;;;11.20;;
23362;SDS011;11853;48.080;11.960;2022-12-13T06:18:49;15.27;;;10.88;;
23362;SDS011;11853;48.080;11.960;2022-12-13T06:21:15;14.35;;;12.10;;
23362;SDS011;11853;48.080;11.960;2022-12-13T06:23:41;14.05;;;11.55;;
23362;SDS011;11853;48.080;11.960;2022-12-13T06:26:07;13.25;;;11.75;;
23362;SDS011;11853;48.080;11.960;2022-12-13T06:28:33;14.38;;;10.98;;
23362;SDS011;11853;48.080;11.960;2022-12-13T06:30:59;15.55;;;12.55;;
23362;SDS011;11853;48.080;11.960;2022-12-13T06:33:26;17.77;;;13.55;;
23362;SDS011;11853;48.080;11.960;2022-12-13T06:35:54;16.00;;;12.95;;
23362;SDS011;11853;48.080;11.960;2022-12-13T06:38:23;13.50;;;11.27;;
23362;SDS011;11853;48.080;11.960;2022-12-13T06:40:49;18.00;;;13.02;;
23362;SDS011;11853;48.080;11.960;2022-12-13T06:43:15;15.50;;;12.98;;
23362;SDS011;11853;48.080;11.960;2022-12-13T06:45:41;18.67;;;13.30;;
23362;SDS011;11853;48.080;11.960;2022-12-13T06:48:07;18.70;;;13.85;;
23362;SDS011;11853;48.080;11.960;2022-12-13T06:50:32;16.77;;;13.48;;
23362;SDS011;11853;48.080;11.960;2022-12-13T06:52:58;17.80;;;13.93;;
23362;SDS011;11853;48.080;11.960;2022-12-13T06:55:25;18.90;;;14.35;;
23362;SDS011;11853;48.080;11.960;2022-12-13T06:57:51;19.35;;;14.13;;
23362;SDS011;11853;48.080;11.960;2022-12-13T07:00:17;18.30;;;13.85;;
23362;SDS011;11853;48.080;11.960;2022-12-13T07:02:43;22.25;;;14.07;;
23362;SDS011;11853;48.080;11.960;2022-12-13T07:05:09;18.80;;;14.50;;
23362;SDS011;11853;48.080;11.960;2022-12-13T07:07:35;21.35;;;14.80;;
23362;SDS011;11853;48.080;11.960;2022-12-13T07:10:00;22.15;;;15.73;;
23362;SDS011;11853;48.080;11.960;2022-12-13T07:12:26;23.30;;;16.27;;
23362;SDS011;11853;48.080;11.960;2022-12-13T07:14:52;19.55;;;14.82;;
23362;SDS011;11853;48.080;11.960;2022-12-13T07:17:19;23.00;;;15.18;;
23362;SDS011;11853;48.080;11.960;2022-12-13T07:19:44;20.70;;;15.23;;
23362;SDS011;11853;48.080;11.960;2022-12-13T07:22:11;21.25;;;15.13;;
23362;SDS011;11853;48.080;11.960;2022-12-13T07:24:36;20.67;;;14.98;;
23362;SDS011;11853;48.080;11.960;2022-12-13T07:27:02;18.77;;;14.35;;
23362;SDS011;11853;48.080;11.960;2022-12-13T07:29:28;21.77;;;15.43;;
23362;SDS011;11853;48.080;11.960;2022-12-13T07:31:54;22.45;;;15.38;;
23362;SDS011;11853;48.080;11.960;2022-12-13T07:34:20;19.45;;;14.32;;
23362;SDS011;11853;48.080;11.960;2022-12-13T07:36:47;19.17;;;16.00;;
23362;SDS011;11853;48.080;11.960;2022-12-13T07:39:14;20.67;;;14.75;;
23362;SDS011;11853;48.080;11.960;2022-12-13T07:41:39;21.60;;;15.85;;
23362;SDS011;11853;48.080;11.960;2022-12-13T07:44:05;20.48;;;15.23;;
23362;SDS011;11853;48.080;11.960;2022-12-13T07:46:31;19.70;;;15.05;;
23362;SDS011;11853;48.080;11.960;2022-12-13T07:48:57;20.85;;;14.80;;
23362;SDS011;11853;48.080;11.960;2022-12-13T07:51:23;19.70;;;14.18;;
23362;SDS011;11853;48.080;11.960;2022-12-13T07:53:48;20.85;;;14.60;;
23362;SDS011;11853;48.080;11.960;2022-12-13T07:56:14;17.02;;;12.40;;
23362;SDS011;11853;48.080;11.960;2022-12-13T07:58:41;19.13;;;13.13;;
23362;SDS011;11853;48.080;11.960;2022-12-13T08:01:08;15.60;;;12.20;;
23362;SDS011;11853;48.080;11.960;2022-12-13T08:03:36;17.75;;;13.10;;
23362;SDS011;11853;48.080;11.960;2022-12-13T08:06:03;16.65;;;12.75;;
23362;SDS011;11853;48.080;11.960;2022-12-13T08:08:33;18.95;;;12.98;;
23362;SDS011;11853;48.080;11.960;2022-12-13T08:11:03;15.98;;;12.13;;
23362;SDS011;11853;48.080;11.960;2022-12-13T08:13:32;18.65;;;13.10;;
23362;SDS011;11853;48.080;11.960;2022-12-13T08:15:58;18.35;;;13.35;;
23362;SDS011;11853;48.080;11.960;2022-12-13T08:18:26;17.98;;;12.70;;
23362;SDS011;11853;48.080;11.960;2022-12-13T08:21:00;17.13;;;12.77;;
23362;SDS011;11853;48.080;11.960;2022-12-13T08:23:28;17.00;;;13.00;;
23362;SDS011;11853;48.080;11.960;2022-12-13T08:25:55;16.55;;;12.57;;
23362;SDS011;11853;48.080;11.960;2022-12-13T08:28:22;19.13;;;12.57;;
23362;SDS011;11853;48.080;11.960;2022-12-13T08:30:49;18.23;;;12.57;;
23362;SDS011;11853;48.080;11.960;2022-12-13T08:33:15;19.42;;;13.85;;
23362;SDS011;11853;48.080;11.960;2022-12-13T08:35:41;21.60;;;14.10;;
23362;SDS011;11853;48.080;11.960;2022-12-13T08:38:07;16.90;;;13.27;;
23362;SDS011;11853;48.080;11.960;2022-12-13T08:40:33;19.48;;;13.27;;
23362;SDS011;11853;48.080;11.960;2022-12-13T08:42:59;17.48;;;12.88;;
23362;SDS011;11853;48.080;11.960;2022-12-13T08:45:26;20.63;;;14.30;;
23362;SDS011;11853;48.080;11.960;2022-12-13T08:47:52;16.63;;;12.52;;
23362;SDS011;11853;48.080;11.960;2022-12-13T08:50:18;23.00;;;15.10;;
23362;SDS011;11853;48.080;11.960;2022-12-13T08:52:44;22.85;;;16.20;;
23362;SDS011;11853;48.080;11.960;2022-12-13T08:55:10;16.65;;;12.43;;
23362;SDS011;11853;48.080;11.960;2022-12-13T08:57:38;16.77;;;11.73;;
23362;SDS011;11853;48.080;11.960;2022-12-13T09:00:06;16.48;;;12.30;;
23362;SDS011;11853;48.080;11.960;2022-12-13T09:02:33;15.10;;;11.45;;
23362;SDS011;11853;48.080;11.960;2022-12-13T09:04:59;16.08;;;12.90;;
23362;SDS011;11853;48.080;11.960;2022-12-13T09:07:25;18.83;;;13.85;;
23362;SDS011;11853;48.080;11.960;2022-12-13T09:09:51;19.45;;;13.88;;
23362;SDS011;11853;48.080;11.960;2022-12-13T09:12:17;16.80;;;13.25;;
23362;SDS011;11853;48.080;11.960;2022-12-13T09:14:44;18.08;;;13.13;;
23362;SDS011;11853;48.080;11.960;2022-12-13T09:17:10;16.35;;;12.00;;
23362;SDS011;11853;48.080;11.960;2022-12-13T09:19:36;16.98;;;12.20;;
23362;SDS011;11853;48.080;11.960;2022-12-13T09:22:02;15.25;;;11.30;;
23362;SDS011;11853;48.080;11.960;2022-12-13T09:24:29;18.42;;;13.77;;
23362;SDS011;11853;48.080;11.960;2022-12-13T09:26:55;14.88;;;11.52;;
23362;SDS011;11853;48.080;11.960;2022-12-13T09:29:20;19.10;;;13.07;;
23362;SDS011;11853;48.080;11.960;2022-12-13T09:31:46;15.50;;;11.45;;
23362;SDS011;11853;48.080;11.960;2022-12-13T09:34:12;14.68;;;10.45;;
23362;SDS011;11853;48.080;11.960;2022-12-13T09:36:38;16.02;;;11.20;;
23362;SDS011;11853;48.080;11.960;2022-12-13T09:39:04;14.15;;;11.25;;
23362;SDS011;11853;48.080;11.960;2022-12-13T09:41:31;12.18;;;9.93;;
23362;SDS011;11853;48.080;11.960;2022-12-13T09:44:05;14.52;;;10.93;;
23362;SDS011;11853;48.080;11.960;2022-12-13T09:46:38;16.40;;;11.88;;
23362;SDS011;11853;48.080;11.960;2022-12-13T09:49:13;13.32;;;10.32;;
23362;SDS011;11853;48.080;11.960;2022-12-13T09:54:06;13.35;;;10.10;;
23362;SDS011;11853;48.080;11.960;2022-12-13T09:56:33;12.52;;;9.77;;
23362;SDS011;11853;48.080;11.960;2022-12-13T09:59:00;13.20;;;10.02;;
23362;SDS011;11853;48.080;11.960;2022-12-13T10:01:27;14.00;;;11.23;;
23362;SDS011;11853;48.080;11.960;2022-12-13T10:03:53;12.05;;;10.13;;
23362;SDS011;11853;48.080;11.960;2022-12-13T10:06:23;14.50;;;10.80;;
23362;SDS011;11853;48.080;11.960;2022-12-13T10:08:56;14.73;;;10.07;;
23362;SDS011;11853;48.080;11.960;2022-12-13T10:11:24;15.07;;;11.20;;
23362;SDS011;11853;48.080;11.960;2022-12-13T10:14:11;15.00;;;11.88;;
23362;SDS011;11853;48.080;11.960;2022-12-13T10:16:59;15.52;;;11.68;;
23362;SDS011;11853;48.080;11.960;2022-12-13T10:19:41;19.90;;;11.35;;
23362;SDS011;11853;48.080;11.960;2022-12-13T10:22:12;17.10;;;10.93;;
23362;SDS011;11853;48.080;11.960;2022-12-13T10:27:14;18.23;;;11.65;;
23362;SDS011;11853;48.080;11.960;2022-12-13T10:32:30;17.15;;;12.25;;
23362;SDS011;11853;48.080;11.960;2022-12-13T10:35:10;18.65;;;12.40;;
23362;SDS011;11853;48.080;11.960;2022-12-13T10:37:43;16.02;;;11.27;;
23362;SDS011;11853;48.080;11.960;2022-12-13T10:40:21;20.30;;;13.18;;
23362;SDS011;11853;48.080;11.960;2022-12-13T10:45:36;16.52;;;11.77;;
23362;SDS011;11853;48.080;11.960;2022-12-13T10:48:02;16.15;;;11.05;;
23362;SDS011;11853;48.080;11.960;2022-12-13T10:50:29;20.25;;;12.20;;
23362;SDS011;11853;48.080;11.960;2022-12-13T10:52:55;17.55;;;11.60;;
23362;SDS011;11853;48.080;11.960;2022-12-13T10:55:29;18.50;;;12.65;;
23362;SDS011;11853;48.080;11.960;2022-12-13T10:57:58;14.45;;;11.32;;
23362;SDS011;11853;48.080;11.960;2022-12-13T11:00:39;15.82;;;11.57;;
23362;SDS011;11853;48.080;11.960;2022-12-13T11:03:33;20.45;;;13.23;;
23362;SDS011;11853;48.080;11.960;2022-12-13T11:06:09;19.55;;;12.65;;
23362;SDS011;11853;48.080;11.960;2022-12-13T11:08:41;16.73;;;11.20;;
23362;SDS011;11853;48.080;11.960;2022-12-13T11:11:07;22.85;;;14.80;;
23362;SDS011;11853;48.080;11.960;2022-12-13T11:13:39;19.45;;;12.73;;
23362;SDS011;11853;48.080;11.960;2022-12-13T11:18:51;18.85;;;12.00;;
23362;SDS011;11853;48.080;11.960;2022-12-13T11:21:28;17.95;;;12.20;;
23362;SDS011;11853;48.080;11.960;2022-12-13T11:24:00;17.85;;;12.48;;
23362;SDS011;11853;48.080;11.960;2022-12-13T11:26:28;21.23;;;13.45;;
23362;SDS011;11853;48.080;11.960;2022-12-13T11:39:40;17.10;;;12.60;;
23362;SDS011;11853;48.080;11.960;2022-12-13T11:42:30;18.20;;;12.50;;
23362;SDS011;11853;48.080;11.960;2022-12-13T11:45:11;20.50;;;12.85;;
23362;SDS011;11853;48.080;11.960;2022-12-13T11:48:27;18.77;;;12.15;;
23362;SDS011;11853;48.080;11.960;2022-12-13T11:50:42;20.30;;;12.85;;
23362;SDS011;11853;48.080;11.960;2022-12-13T11:55:54;20.65;;;11.68;;
23362;SDS011;11853;48.080;11.960;2022-12-13T11:58:23;18.80;;;12.35;;
23362;SDS011;11853;48.080;11.960;2022-12-13T12:01:10;21.52;;;13.32;;
23362;SDS011;11853;48.080;11.960;2022-12-13T12:03:43;22.45;;;14.45;;
23362;SDS011;11853;48.080;11.960;2022-12-13T12:06:19;23.42;;;14.23;;
23362;SDS011;11853;48.080;11.960;2022-12-13T12:08:59;18.30;;;12.52;;
23362;SDS011;11853;48.080;11.960;2022-12-13T12:11:33;17.98;;;13.30;;
23362;SDS011;11853;48.080;11.960;2022-12-13T12:16:51;19.98;;;13.52;;
23362;SDS011;11853;48.080;11.960;2022-12-13T12:19:29;21.25;;;13.23;;
23362;SDS011;11853;48.080;11.960;2022-12-13T12:25:06;22.38;;;13.18;;
23362;SDS011;11853;48.080;11.960;2022-12-13T12:30:52;18.42;;;13.07;;
23362;SDS011;11853;48.080;11.960;2022-12-13T12:42:37;20.70;;;13.13;;
23362;SDS011;11853;48.080;11.960;2022-12-13T12:50:27;19.00;;;13.00;;
23362;SDS011;11853;48.080;11.960;2022-12-13T12:53:36;21.60;;;13.63;;
23362;SDS011;11853;48.080;11.960;2022-12-13T13:04:32;31.70;;;18.40;;
23362;SDS011;11853;48.080;11.960;2022-12-13T13:07:05;25.40;;;15.43;;
23362;SDS011;11853;48.080;11.960;2022-12-13T13:09:37;22.00;;;14.40;;
23362;SDS011;11853;48.080;11.960;2022-12-13T13:12:04;21.27;;;14.05;;
23362;SDS011;11853;48.080;11.960;2022-12-13T13:14:35;19.92;;;13.70;;
23362;SDS011;11853;48.080;11.960;2022-12-13T13:19:52;20.20;;;13.98;;
23362;SDS011;11853;48.080;11.960;2022-12-13T13:22:32;26.00;;;15.40;;
23362;SDS011;11853;48.080;11.960;2022-12-13T13:27:29;25.00;;;15.43;;
23362;SDS011;11853;48.080;11.960;2022-12-13T13:30:05;24.50;;;15.45;;
23362;SDS011;11853;48.080;11.960;2022-12-13T13:32:40;25.48;;;15.43;;
23362;SDS011;11853;48.080;11.960;2022-12-13T13:36:07;21.83;;;15.07;;
23362;SDS011;11853;48.080;11.960;2022-12-13T13:40:48;25.75;;;15.93;;
23362;SDS011;11853;48.080;11.960;2022-12-13T13:43:35;26.05;;;16.80;;
23362;SDS011;11853;48.080;11.960;2022-12-13T13:49:18;29.15;;;16.65;;
23362;SDS011;11853;48.080;11.960;2022-12-13T14:04:08;28.10;;;17.30;;
23362;SDS011;11853;48.080;11.960;2022-12-13T14:26:48;25.08;;;17.50;;
23362;SDS011;11853;48.080;11.960;2022-12-13T14:29:29;31.02;;;20.15;;
23362;SDS011;11853;48.080;11.960;2022-12-13T14:31:57;33.63;;;18.98;;
23362;SDS011;11853;48.080;11.960;2022-12-13T14:34:27;29.45;;;20.50;;
23362;SDS011;11853;48.080;11.960;2022-12-13T14:36:56;26.20;;;18.60;;
23362;SDS011;11853;48.080;11.960;2022-12-13T14:39:27;28.25;;;18.42;;
23362;SDS011;11853;48.080;11.960;2022-12-13T14:41:56;27.83;;;18.70;;
23362;SDS011;11853;48.080;11.960;2022-12-13T14:44:25;25.83;;;18.45;;
23362;SDS011;11853;48.080;11.960;2022-12-13T14:46:56;28.88;;;19.40;;
23362;SDS011;11853;48.080;11.960;2022-12-13T14:49:25;26.92;;;18.42;;
23362;SDS011;11853;48.080;11.960;2022-12-13T14:52:27;27.65;;;18.58;;
23362;SDS011;11853;48.080;11.960;2022-12-13T14:54:55;25.42;;;19.38;;
23362;SDS011;11853;48.080;11.960;2022-12-13T14:57:26;30.25;;;20.95;;
23362;SDS011;11853;48.080;11.960;2022-12-13T14:59:54;35.63;;;22.05;;
23362;SDS011;11853;48.080;11.960;2022-12-13T15:02:23;31.88;;;22.42;;
23362;SDS011;11853;48.080;11.960;2022-12-13T15:04:52;41.30;;;26.50;;
23362;SDS011;11853;48.080;11.960;2022-12-13T15:07:35;32.00;;;20.70;;
23362;SDS011;11853;48.080;11.960;2022-12-13T15:10:19;30.90;;;20.48;;
23362;SDS011;11853;48.080;11.960;2022-12-13T15:12:49;29.25;;;21.15;;
23362;SDS011;11853;48.080;11.960;2022-12-13T15:15:25;30.38;;;21.52;;
23362;SDS011;11853;48.080;11.960;2022-12-13T15:20:39;32.88;;;24.73;;
23362;SDS011;11853;48.080;11.960;2022-12-13T15:23:10;33.33;;;23.60;;
23362;SDS011;11853;48.080;11.960;2022-12-13T15:25:42;30.67;;;22.40;;
23362;SDS011;11853;48.080;11.960;2022-12-13T15:28:13;30.42;;;22.25;;
23362;SDS011;11853;48.080;11.960;2022-12-13T15:30:40;28.85;;;21.17;;
23362;SDS011;11853;48.080;11.960;2022-12-13T15:33:14;29.77;;;21.80;;
23362;SDS011;11853;48.080;11.960;2022-12-13T15:35:43;32.35;;;23.20;;
23362;SDS011;11853;48.080;11.960;2022-12-13T15:38:16;32.42;;;22.20;;
23362;SDS011;11853;48.080;11.960;2022-12-13T15:40:47;28.98;;;19.83;;
23362;SDS011;11853;48.080;11.960;2022-12-13T15:43:14;30.38;;;21.65;;
23362;SDS011;11853;48.080;11.960;2022-12-13T15:45:44;36.08;;;22.15;;
23362;SDS011;11853;48.080;11.960;2022-12-13T15:48:30;30.60;;;20.58;;
23362;SDS011;11853;48.080;11.960;2022-12-13T15:51:12;33.85;;;21.67;;
23362;SDS011;11853;48.080;11.960;2022-12-13T15:56:57;33.65;;;22.05;;
23362;SDS011;11853;48.080;11.960;2022-12-13T15:59:29;28.67;;;18.65;;
23362;SDS011;11853;48.080;11.960;2022-12-13T16:01:57;27.45;;;19.60;;
23362;SDS011;11853;48.080;11.960;2022-12-13T16:04:25;29.02;;;19.63;;
23362;SDS011;11853;48.080;11.960;2022-12-13T16:06:53;22.60;;;17.58;;
23362;SDS011;11853;48.080;11.960;2022-12-13T16:09:20;27.02;;;20.30;;
23362;SDS011;11853;48.080;11.960;2022-12-13T16:12:02;30.65;;;20.58;;
23362;SDS011;11853;48.080;11.960;2022-12-13T16:19:53;28.33;;;19.48;;
23362;SDS011;11853;48.080;11.960;2022-12-13T16:22:21;28.40;;;19.50;;
23362;SDS011;11853;48.080;11.960;2022-12-13T16:24:48;27.50;;;19.30;;
23362;SDS011;11853;48.080;11.960;2022-12-13T16:27:16;23.77;;;18.67;;
23362;SDS011;11853;48.080;11.960;2022-12-13T16:29:42;27.67;;;19.90;;
23362;SDS011;11853;48.080;11.960;2022-12-13T16:32:11;27.48;;;20.15;;
23362;SDS011;11853;48.080;11.960;2022-12-13T16:34:36;27.02;;;20.05;;
23362;SDS011;11853;48.080;11.960;2022-12-13T16:37:03;28.20;;;18.92;;
23362;SDS011;11853;48.080;11.960;2022-12-13T16:39:29;25.52;;;19.40;;
23362;SDS011;11853;48.080;11.960;2022-12-13T16:41:55;28.38;;;20.33;;
23362;SDS011;11853;48.080;11.960;2022-12-13T16:44:34;28.23;;;20.48;;
23362;SDS011;11853;48.080;11.960;2022-12-13T16:47:01;27.80;;;20.75;;
23362;SDS011;11853;48.080;11.960;2022-12-13T16:49:32;29.05;;;19.52;;
23362;SDS011;11853;48.080;11.960;2022-12-13T16:51:58;31.63;;;21.30;;
23362;SDS011;11853;48.080;11.960;2022-12-13T16:54:24;29.63;;;20.73;;